Terminal Aerodrome Forecast
Issued by NWS

Home | Current Version | Previous Version | Graphics & Text | Print | Product List | Glossary On
Versions: 1 2 3 4 5 6 7 8 9 10 11 12 13
134
FTUS43 KICT 080529
TAFRSL
TAF
KRSL 080529Z 0806/0906 30018G25KT P6SM SKC
     FM081600 33027G37KT P6SM FEW250
     FM090000 31018G25KT P6SM SKC
     FM090300 30012KT P6SM SCT250=

USA.gov is the U.S. government's official web portal to all federal, state and local government web resources and services.